createdAt,value
2022-12-28T00:00:30.197Z,9.50
2022-12-28T00:03:01.585Z,9.40
2022-12-28T00:05:31.715Z,9.40
2022-12-28T00:08:01.962Z,9.40
2022-12-28T00:11:08.663Z,9.40
2022-12-28T00:15:56.285Z,9.50
2022-12-28T00:18:26.393Z,9.50
2022-12-28T00:21:00.431Z,8.90
2022-12-28T00:23:31.029Z,9.50
2022-12-28T00:26:09.725Z,9.30
2022-12-28T00:28:39.992Z,9.40
2022-12-28T00:31:15.976Z,9.50
2022-12-28T00:36:18.145Z,9.70
2022-12-28T00:38:48.890Z,9.70
2022-12-28T00:41:19.149Z,9.80
2022-12-28T00:43:49.305Z,10.80
2022-12-28T00:46:22.156Z,9.80
2022-12-28T00:48:52.377Z,9.80
2022-12-28T00:51:23.238Z,9.80
2022-12-28T00:53:53.268Z,9.70
2022-12-28T00:56:24.849Z,9.70
2022-12-28T00:58:59.532Z,9.10
2022-12-28T01:01:33.031Z,8.90
2022-12-28T01:04:03.374Z,9.60
2022-12-28T01:06:34.125Z,9.70
2022-12-28T01:09:04.322Z,9.80
2022-12-28T01:11:34.536Z,9.90
2022-12-28T01:14:05.470Z,9.80
2022-12-28T01:16:39.464Z,9.70
2022-12-28T01:19:10.802Z,9.70
2022-12-28T01:21:40.923Z,9.70
2022-12-28T01:24:12.690Z,9.70
2022-12-28T01:26:42.721Z,9.20
2022-12-28T01:29:12.948Z,9.40
2022-12-28T01:31:45.711Z,9.50
2022-12-28T01:34:15.871Z,9.60
2022-12-28T01:36:46.103Z,9.60
2022-12-28T01:39:16.216Z,9.70
2022-12-28T01:41:46.840Z,9.70
2022-12-28T01:44:40.993Z,8.80
2022-12-28T01:47:17.796Z,9.80
2022-12-28T01:50:03.913Z,9.80
2022-12-28T01:52:38.184Z,9.90
2022-12-28T01:55:13.302Z,9.90
2022-12-28T01:57:55.911Z,9.80
2022-12-28T02:00:27.115Z,9.90
2022-12-28T02:03:01.275Z,9.80
2022-12-28T02:05:35.957Z,9.80
2022-12-28T02:08:11.033Z,10.80
2022-12-28T02:10:45.792Z,9.80
2022-12-28T02:13:17.586Z,9.80
2022-12-28T02:15:48.365Z,9.80
2022-12-28T02:18:23.212Z,9.90
2022-12-28T02:21:20.719Z,9.80
2022-12-28T02:24:00.607Z,9.90
2022-12-28T02:26:47.671Z,10.00
2022-12-28T02:29:44.944Z,10.10
2022-12-28T02:32:29.167Z,9.90
2022-12-28T02:35:07.141Z,9.90
2022-12-28T02:37:43.355Z,9.80
2022-12-28T02:40:19.600Z,9.40
2022-12-28T02:42:50.513Z,9.70
2022-12-28T02:46:05.240Z,9.60
2022-12-28T02:48:55.624Z,9.60
2022-12-28T02:51:56.771Z,9.50
2022-12-28T02:54:57.152Z,9.50
2022-12-28T02:57:36.292Z,9.60
2022-12-28T03:00:09.964Z,9.60
2022-12-28T03:03:08.524Z,9.70
2022-12-28T03:06:03.275Z,9.70
2022-12-28T03:08:40.552Z,9.60
2022-12-28T03:11:16.105Z,9.60
2022-12-28T03:16:23.852Z,9.60
2022-12-28T03:19:13.294Z,9.80
2022-12-28T03:21:57.691Z,9.70
2022-12-28T03:24:40.553Z,9.70
2022-12-28T03:27:27.065Z,9.80
2022-12-28T03:30:15.841Z,9.80
2022-12-28T03:32:45.961Z,9.90
2022-12-28T03:35:23.703Z,9.90
2022-12-28T03:37:59.530Z,9.40
2022-12-28T03:40:37.608Z,9.80
2022-12-28T03:43:26.511Z,10.00
2022-12-28T03:45:59.775Z,10.00
2022-12-28T03:48:30.211Z,10.10
2022-12-28T03:51:03.333Z,10.10
2022-12-28T03:53:40.214Z,10.20
2022-12-28T03:56:12.984Z,10.20
2022-12-28T03:58:49.405Z,10.20
2022-12-28T04:01:19.761Z,10.30
2022-12-28T04:03:50.128Z,10.00
2022-12-28T04:06:23.561Z,10.10
2022-12-28T04:09:00.017Z,9.90
2022-12-28T04:11:30.339Z,11.00
2022-12-28T04:14:03.152Z,10.30
2022-12-28T04:16:37.450Z,10.30
2022-12-28T04:19:07.919Z,10.30
2022-12-28T04:21:41.103Z,10.40
2022-12-28T04:24:11.357Z,9.40
2022-12-28T04:26:41.470Z,10.30
2022-12-28T04:29:11.579Z,10.40
2022-12-28T04:31:41.877Z,10.40
2022-12-28T04:34:12.109Z,10.50
2022-12-28T04:36:47.478Z,10.50
2022-12-28T04:41:47.898Z,10.40
2022-12-28T04:44:17.977Z,10.50
2022-12-28T04:46:48.216Z,10.50
2022-12-28T04:49:26.022Z,10.60
2022-12-28T04:51:58.579Z,10.70
2022-12-28T04:54:28.853Z,10.70
2022-12-28T04:57:07.465Z,10.70
2022-12-28T04:59:37.677Z,10.70
2022-12-28T05:02:07.981Z,10.70
2022-12-28T05:04:38.119Z,10.40
2022-12-28T05:07:10.923Z,10.70
2022-12-28T05:09:40.993Z,10.80
2022-12-28T05:12:11.242Z,10.90
2022-12-28T05:14:42.361Z,10.90
2022-12-28T05:17:12.685Z,11.00
2022-12-28T05:19:43.087Z,10.70
2022-12-28T05:22:17.379Z,11.10
2022-12-28T05:24:47.551Z,11.00
2022-12-28T05:27:17.762Z,10.90
2022-12-28T05:29:47.893Z,10.90
2022-12-28T05:32:18.151Z,11.50
2022-12-28T05:34:48.690Z,11.00
2022-12-28T05:37:22.247Z,11.10
2022-12-28T05:39:52.651Z,11.10
2022-12-28T05:42:22.768Z,11.00
2022-12-28T05:44:52.831Z,11.00
2022-12-28T05:47:23.064Z,13.10
2022-12-28T05:49:53.278Z,11.20
2022-12-28T05:52:26.035Z,11.20
2022-12-28T05:54:56.530Z,11.30
2022-12-28T05:57:26.742Z,11.30
2022-12-28T05:59:56.886Z,11.20
2022-12-28T06:02:27.852Z,11.30
2022-12-28T06:04:58.201Z,11.30
2022-12-28T06:07:30.954Z,11.30
2022-12-28T06:10:01.050Z,11.10
2022-12-28T06:12:31.127Z,11.20
2022-12-28T06:15:01.184Z,11.20
2022-12-28T06:17:31.252Z,11.00
2022-12-28T06:20:01.348Z,11.00
2022-12-28T06:22:34.072Z,11.10
2022-12-28T06:25:04.129Z,11.30
2022-12-28T06:27:34.495Z,11.20
2022-12-28T06:30:04.615Z,11.20
2022-12-28T06:32:34.766Z,11.20
2022-12-28T06:35:05.384Z,11.30
2022-12-28T06:37:38.616Z,11.30
2022-12-28T06:40:09.995Z,11.30
2022-12-28T06:42:40.189Z,11.40
2022-12-28T06:45:12.223Z,11.30
2022-12-28T06:47:56.333Z,11.30
2022-12-28T06:50:29.640Z,11.50
2022-12-28T06:53:02.654Z,11.50
2022-12-28T06:55:32.757Z,11.30
2022-12-28T06:58:02.880Z,11.30
2022-12-28T07:00:33.051Z,11.20
2022-12-28T07:03:03.420Z,11.10
2022-12-28T07:05:35.872Z,11.00
2022-12-28T07:08:12.580Z,11.00
2022-12-28T07:10:43.170Z,11.20
2022-12-28T07:13:13.808Z,11.10
2022-12-28T07:15:43.936Z,11.20
2022-12-28T07:18:14.363Z,11.20
2022-12-28T07:21:04.289Z,11.30
2022-12-28T07:23:37.580Z,11.30
2022-12-28T07:26:11.939Z,11.30
2022-12-28T07:28:43.540Z,11.30
2022-12-28T07:31:16.856Z,11.30
2022-12-28T07:33:48.451Z,11.30
2022-12-28T07:36:20.524Z,11.30
2022-12-28T07:38:53.470Z,11.40
2022-12-28T07:41:25.017Z,11.40
2022-12-28T07:43:55.374Z,11.50
2022-12-28T07:46:27.215Z,11.50
2022-12-28T07:48:58.085Z,11.40
2022-12-28T07:51:30.494Z,11.40
2022-12-28T07:54:03.331Z,11.60
2022-12-28T07:59:05.176Z,11.60
2022-12-28T08:01:37.994Z,11.50
2022-12-28T08:04:10.883Z,11.50
2022-12-28T08:06:43.267Z,11.40
2022-12-28T08:09:17.711Z,11.50
2022-12-28T08:11:48.948Z,11.60
2022-12-28T08:14:19.206Z,11.40
2022-12-28T08:16:49.751Z,11.30
2022-12-28T08:19:19.951Z,10.80
2022-12-28T08:21:56.466Z,11.40
2022-12-28T08:24:29.280Z,11.50
2022-12-28T08:26:59.573Z,11.60
2022-12-28T08:29:29.892Z,11.60
2022-12-28T08:32:00.282Z,11.70
2022-12-28T08:34:30.531Z,11.60
2022-12-28T08:37:00.678Z,11.50
2022-12-28T08:39:33.605Z,11.40
2022-12-28T08:42:03.995Z,11.40
2022-12-28T08:44:34.370Z,11.50
2022-12-28T08:47:07.945Z,11.70
2022-12-28T08:49:38.162Z,11.70
2022-12-28T08:52:08.531Z,11.70
2022-12-28T08:54:41.391Z,11.70
2022-12-28T08:57:11.566Z,10.80
2022-12-28T08:59:41.865Z,11.60
2022-12-28T09:02:16.066Z,11.70
2022-12-28T09:04:47.377Z,11.50
2022-12-28T09:07:17.594Z,11.70
2022-12-28T09:09:50.506Z,11.80
2022-12-28T09:12:20.580Z,11.60
2022-12-28T09:15:02.932Z,11.70
2022-12-28T09:20:03.974Z,11.70
2022-12-28T09:22:34.418Z,11.50
2022-12-28T09:25:08.218Z,11.50
2022-12-28T09:27:38.426Z,11.30
2022-12-28T09:30:09.893Z,11.30
2022-12-28T09:32:40.013Z,11.30
2022-12-28T09:35:14.352Z,11.20
2022-12-28T09:37:45.212Z,11.20
2022-12-28T09:40:18.460Z,11.20
2022-12-28T09:42:48.659Z,11.10
2022-12-28T09:45:23.111Z,11.10
2022-12-28T09:47:56.458Z,11.20
2022-12-28T09:50:31.995Z,11.10
2022-12-28T09:53:24.660Z,10.90
2022-12-28T09:56:05.813Z,11.00
2022-12-28T09:58:42.924Z,11.20
2022-12-28T10:01:19.945Z,11.20
2022-12-28T10:03:50.705Z,11.30
2022-12-28T10:06:25.244Z,11.30
2022-12-28T10:08:57.746Z,11.30
2022-12-28T10:11:34.731Z,11.40
2022-12-28T10:14:12.526Z,11.30
2022-12-28T10:16:47.020Z,11.30
2022-12-28T10:19:22.156Z,11.40
2022-12-28T10:22:01.343Z,11.40
2022-12-28T10:24:33.024Z,11.50
2022-12-28T10:27:09.414Z,11.50
2022-12-28T10:29:40.782Z,11.40
2022-12-28T10:32:12.815Z,11.30
2022-12-28T10:34:57.929Z,11.40
2022-12-28T10:37:29.636Z,11.40
2022-12-28T10:40:03.908Z,11.40
2022-12-28T10:42:41.602Z,11.30
2022-12-28T10:45:21.895Z,11.30
2022-12-28T10:47:54.504Z,12.40
2022-12-28T10:50:40.882Z,11.50
2022-12-28T10:53:20.831Z,11.40
2022-12-28T10:55:51.180Z,11.30
2022-12-28T10:58:29.464Z,11.20
2022-12-28T11:01:03.125Z,11.20
2022-12-28T11:03:38.694Z,11.20
2022-12-28T11:06:22.770Z,11.20
2022-12-28T11:09:18.293Z,11.20
2022-12-28T11:11:50.691Z,11.30
2022-12-28T11:14:33.220Z,11.30
2022-12-28T11:17:18.062Z,11.50
2022-12-28T11:19:48.673Z,11.00
2022-12-28T11:22:25.282Z,11.40
2022-12-28T11:24:56.190Z,11.40
2022-12-28T11:27:27.564Z,11.50
2022-12-28T11:30:01.317Z,11.60
2022-12-28T11:32:36.968Z,11.70
2022-12-28T11:35:08.755Z,11.70
2022-12-28T11:37:38.917Z,11.80
2022-12-28T11:40:13.454Z,11.80
2022-12-28T11:43:05.361Z,11.80
2022-12-28T11:45:54.136Z,11.90
2022-12-28T11:48:48.097Z,11.70
2022-12-28T11:51:20.007Z,11.80
2022-12-28T11:54:00.231Z,11.80
2022-12-28T11:56:31.554Z,11.80
2022-12-28T11:59:24.640Z,11.70
2022-12-28T12:02:07.281Z,11.80
2022-12-28T12:04:43.667Z,11.80
2022-12-28T12:07:31.604Z,11.90
2022-12-28T12:10:30.371Z,12.00
2022-12-28T12:13:02.081Z,12.10
2022-12-28T12:15:40.505Z,12.10
2022-12-28T12:18:21.850Z,12.00
2022-12-28T12:21:06.793Z,11.80
2022-12-28T12:23:47.121Z,12.00
2022-12-28T12:26:28.353Z,12.00
2022-12-28T12:29:02.703Z,12.00
2022-12-28T12:31:36.893Z,12.10
2022-12-28T12:37:29.239Z,12.30
2022-12-28T12:40:26.179Z,12.00
2022-12-28T12:43:17.268Z,12.00
2022-12-28T12:45:56.813Z,12.00
2022-12-28T12:48:55.243Z,12.00
2022-12-28T12:51:34.533Z,12.10
2022-12-28T12:54:20.821Z,12.20
2022-12-28T12:56:56.587Z,12.20
2022-12-28T12:59:46.913Z,12.00
2022-12-28T13:02:38.774Z,12.10
2022-12-28T13:05:10.435Z,12.10
2022-12-28T13:07:43.447Z,12.10
2022-12-28T13:10:19.461Z,12.20
2022-12-28T13:15:21.743Z,12.30
2022-12-28T13:20:58.303Z,12.30
2022-12-28T13:23:32.502Z,12.30
2022-12-28T13:26:04.101Z,12.40
2022-12-28T13:28:36.196Z,12.30
2022-12-28T13:31:11.400Z,12.40
2022-12-28T13:33:42.390Z,12.40
2022-12-28T13:36:20.953Z,12.20
2022-12-28T13:39:04.754Z,12.40
2022-12-28T13:41:38.670Z,12.50
2022-12-28T13:44:44.590Z,12.40
2022-12-28T13:47:23.423Z,12.50
2022-12-28T13:50:02.007Z,12.50
2022-12-28T13:52:37.476Z,12.40
2022-12-28T13:55:15.240Z,12.50
2022-12-28T13:57:49.128Z,12.40
2022-12-28T14:00:22.192Z,12.40
2022-12-28T14:02:56.273Z,12.40
2022-12-28T14:05:29.885Z,12.40
2022-12-28T14:08:13.695Z,12.40
2022-12-28T14:10:48.723Z,12.40
2022-12-28T14:13:21.312Z,12.40
2022-12-28T14:15:52.847Z,12.40
2022-12-28T14:18:23.659Z,12.30
2022-12-28T14:20:55.974Z,12.20
2022-12-28T14:23:28.306Z,12.30
2022-12-28T14:26:03.429Z,12.30
2022-12-28T14:28:37.932Z,12.30
2022-12-28T14:31:11.264Z,12.30
2022-12-28T14:33:51.685Z,12.30
2022-12-28T14:36:24.864Z,12.20
2022-12-28T14:39:02.759Z,12.20
2022-12-28T14:41:42.107Z,12.20
2022-12-28T14:44:20.306Z,12.30
2022-12-28T14:47:01.030Z,12.40
2022-12-28T14:49:42.847Z,12.50
2022-12-28T14:52:38.629Z,12.50
2022-12-28T14:55:34.391Z,12.30
2022-12-28T14:58:17.217Z,12.40
2022-12-28T15:00:59.496Z,12.40
2022-12-28T15:03:31.040Z,12.30
2022-12-28T15:06:02.692Z,12.30
2022-12-28T15:08:32.821Z,12.10
2022-12-28T15:13:37.715Z,12.00
2022-12-28T15:16:08.719Z,11.40
2022-12-28T15:18:45.326Z,12.00
2022-12-28T15:21:17.546Z,12.00
2022-12-28T15:23:51.027Z,11.80
2022-12-28T15:26:21.694Z,11.80
2022-12-28T15:28:55.159Z,11.70
2022-12-28T15:31:25.690Z,11.80
2022-12-28T15:33:56.167Z,11.80
2022-12-28T15:36:26.462Z,11.40
2022-12-28T15:39:02.379Z,11.80
2022-12-28T15:41:45.090Z,12.60
2022-12-28T15:44:19.813Z,11.80
2022-12-28T15:46:51.765Z,11.90
2022-12-28T15:49:22.414Z,11.90
2022-12-28T15:51:53.045Z,12.00
2022-12-28T15:54:23.336Z,11.80
2022-12-28T15:56:56.270Z,11.70
2022-12-28T15:59:29.570Z,11.70
2022-12-28T16:02:00.080Z,11.70
2022-12-28T16:04:30.536Z,11.70
2022-12-28T16:07:00.736Z,11.70
2022-12-28T16:09:31.019Z,11.70
2022-12-28T16:12:01.356Z,11.60
2022-12-28T16:14:34.270Z,11.60
2022-12-28T16:17:04.507Z,11.60
2022-12-28T16:19:34.686Z,11.50
2022-12-28T16:22:04.780Z,11.40
2022-12-28T16:24:35.205Z,11.30
2022-12-28T16:27:05.556Z,11.30
2022-12-28T16:29:38.894Z,11.30
2022-12-28T16:32:09.330Z,11.40
2022-12-28T16:35:06.997Z,11.50
2022-12-28T16:37:37.313Z,11.50
2022-12-28T16:40:09.083Z,11.40
2022-12-28T16:42:39.593Z,11.30
2022-12-28T16:45:13.387Z,11.30
2022-12-28T16:47:45.092Z,11.10
2022-12-28T16:50:15.545Z,11.10
2022-12-28T16:52:45.855Z,11.20
2022-12-28T16:55:16.013Z,11.20
2022-12-28T16:57:47.504Z,11.20
2022-12-28T17:00:20.819Z,11.20
2022-12-28T17:02:51.194Z,11.00
2022-12-28T17:05:22.016Z,11.00
2022-12-28T17:07:52.449Z,11.10
2022-12-28T17:10:22.527Z,11.20
2022-12-28T17:12:52.587Z,11.20
2022-12-28T17:15:26.157Z,11.10
2022-12-28T17:17:56.312Z,11.10
2022-12-28T17:20:27.773Z,11.10
2022-12-28T17:22:57.911Z,11.10
2022-12-28T17:25:28.163Z,11.00
2022-12-28T17:27:58.837Z,11.10
2022-12-28T17:30:31.892Z,11.20
2022-12-28T17:33:02.211Z,11.30
2022-12-28T17:35:32.381Z,11.10
2022-12-28T17:38:02.586Z,11.10
2022-12-28T17:40:32.751Z,11.10
2022-12-28T17:43:03.186Z,11.10
2022-12-28T17:45:45.392Z,11.10
2022-12-28T17:48:27.322Z,12.50
2022-12-28T17:50:59.089Z,11.00
2022-12-28T17:53:29.482Z,11.10
2022-12-28T17:58:30.116Z,11.20
2022-12-28T18:01:03.160Z,11.30
2022-12-28T18:03:34.338Z,11.20
2022-12-28T18:06:05.155Z,11.40
2022-12-28T18:08:35.652Z,11.40
2022-12-28T18:11:06.189Z,11.40
2022-12-28T18:13:36.530Z,12.40
2022-12-28T18:16:10.676Z,10.90
2022-12-28T18:18:40.998Z,11.70
2022-12-28T18:21:19.360Z,11.50
2022-12-28T18:23:52.789Z,11.50
2022-12-28T18:26:26.466Z,12.10
2022-12-28T18:28:57.340Z,11.40
2022-12-28T18:31:30.321Z,11.50
2022-12-28T18:34:02.271Z,11.60
2022-12-28T18:36:32.797Z,11.60
2022-12-28T18:39:03.024Z,11.60
2022-12-28T18:41:34.385Z,11.60
2022-12-28T18:44:05.481Z,11.60
2022-12-28T18:46:38.270Z,11.70
2022-12-28T18:49:08.443Z,11.70
2022-12-28T18:51:38.588Z,11.70
2022-12-28T18:54:09.034Z,11.70
2022-12-28T18:56:39.124Z,11.70
2022-12-28T18:59:09.444Z,11.80
2022-12-28T19:04:33.359Z,11.80
2022-12-28T19:07:03.259Z,11.90
2022-12-28T19:09:33.442Z,11.90
2022-12-28T19:12:03.510Z,11.90
2022-12-28T19:14:33.612Z,12.00
2022-12-28T19:17:06.408Z,12.00
2022-12-28T19:19:36.504Z,12.00
2022-12-28T19:22:06.708Z,12.10
2022-12-28T19:24:36.917Z,12.10
2022-12-28T19:27:07.125Z,12.00
2022-12-28T19:29:37.510Z,12.00
2022-12-28T19:32:10.621Z,12.00
2022-12-28T19:34:40.763Z,12.00
2022-12-28T19:37:11.030Z,12.10
2022-12-28T19:39:41.200Z,12.10
2022-12-28T19:42:11.430Z,12.10
2022-12-28T19:44:41.742Z,12.20
2022-12-28T19:47:14.472Z,12.10
2022-12-28T19:49:44.614Z,12.20
2022-12-28T19:52:15.086Z,12.20
2022-12-28T19:54:45.515Z,12.10
2022-12-28T19:57:15.671Z,12.20
2022-12-28T19:59:45.817Z,12.10
2022-12-28T20:02:18.669Z,11.90
2022-12-28T20:04:49.098Z,12.10
2022-12-28T20:07:19.388Z,12.20
2022-12-28T20:09:52.596Z,12.20
2022-12-28T20:12:22.788Z,12.20
2022-12-28T20:14:53.160Z,12.30
2022-12-28T20:17:26.003Z,12.30
2022-12-28T20:19:56.310Z,12.30
2022-12-28T20:22:26.703Z,12.30
2022-12-28T20:24:57.224Z,12.30
2022-12-28T20:27:30.558Z,11.60
2022-12-28T20:30:00.815Z,12.30
2022-12-28T20:32:35.594Z,12.40
2022-12-28T20:35:09.062Z,12.40
2022-12-28T20:37:40.578Z,12.40
2022-12-28T20:40:12.158Z,12.30
2022-12-28T20:42:54.709Z,12.40
2022-12-28T20:45:25.027Z,12.30
2022-12-28T20:47:58.689Z,12.30
2022-12-28T20:50:29.223Z,12.40
2022-12-28T20:52:59.679Z,12.30
2022-12-28T20:55:29.993Z,12.30
2022-12-28T20:58:00.254Z,12.20
2022-12-28T21:00:30.752Z,12.20
2022-12-28T21:03:03.844Z,12.20
2022-12-28T21:05:34.511Z,12.30
2022-12-28T21:08:04.817Z,12.30
2022-12-28T21:10:35.170Z,12.30
2022-12-28T21:13:05.435Z,12.30
2022-12-28T21:15:35.861Z,12.40
2022-12-28T21:18:08.805Z,12.30
2022-12-28T21:20:39.408Z,12.40
2022-12-28T21:23:09.576Z,12.40
2022-12-28T21:25:39.845Z,12.30
2022-12-28T21:37:39.150Z,12.60
2022-12-28T21:40:13.582Z,12.60
2022-12-28T21:42:43.992Z,12.70
2022-12-28T21:45:14.623Z,13.10
2022-12-28T21:47:44.830Z,12.60
2022-12-28T21:50:15.087Z,12.70
2022-12-28T21:52:48.000Z,12.70
2022-12-28T21:55:30.679Z,12.70
2022-12-28T21:58:01.195Z,12.80
2022-12-28T22:00:43.750Z,12.80
2022-12-28T22:03:26.440Z,12.90
2022-12-28T22:06:06.677Z,12.80
2022-12-28T22:08:52.156Z,12.80
2022-12-28T22:11:35.333Z,12.80
2022-12-28T22:14:06.078Z,12.90
2022-12-28T22:16:37.169Z,13.90
2022-12-28T22:19:07.310Z,12.90
2022-12-28T22:21:38.009Z,12.90
2022-12-28T22:24:11.013Z,12.90
2022-12-28T22:26:41.174Z,12.90
2022-12-28T22:29:11.464Z,13.00
2022-12-28T22:31:42.053Z,13.00
2022-12-28T22:34:12.325Z,12.90
2022-12-28T22:36:42.539Z,12.90
2022-12-28T22:39:15.415Z,13.00
2022-12-28T22:41:45.555Z,13.00
2022-12-28T22:44:15.714Z,12.90
2022-12-28T22:46:45.832Z,12.90
2022-12-28T22:49:16.289Z,13.00
2022-12-28T22:51:46.461Z,13.00
2022-12-28T22:54:19.299Z,13.10
2022-12-28T22:56:49.414Z,13.20
2022-12-28T22:59:19.864Z,13.30
2022-12-28T23:01:50.938Z,13.20
2022-12-28T23:04:21.268Z,13.30
2022-12-28T23:06:51.490Z,13.30
2022-12-28T23:09:24.719Z,13.30
2022-12-28T23:11:54.984Z,13.30
2022-12-28T23:14:43.009Z,13.20
2022-12-28T23:17:15.091Z,13.20
2022-12-28T23:19:58.001Z,13.20
2022-12-28T23:22:43.033Z,13.20
2022-12-28T23:25:32.344Z,13.10
2022-12-28T23:28:03.398Z,13.10
2022-12-28T23:33:04.510Z,13.00
2022-12-28T23:35:34.835Z,13.00
2022-12-28T23:38:05.079Z,12.90
2022-12-28T23:40:40.561Z,12.90
2022-12-28T23:43:10.949Z,12.80
2022-12-28T23:45:41.762Z,12.80
2022-12-28T23:48:12.020Z,12.50
2022-12-28T23:50:42.433Z,12.50
2022-12-28T23:53:12.744Z,12.60
2022-12-28T23:55:45.641Z,12.60
2022-12-28T23:58:15.806Z,12.50
